sensor_id;sensor_type;location;lat;lon;timestamp;pressure;altitude;pressure_sealevel;temperature
13410;BMP180;6775;49.574;11.170;2023-07-31T00:00:06;97507.69;;;15.43
13410;BMP180;6775;49.574;11.170;2023-07-31T00:02:37;97505.72;;;15.37
13410;BMP180;6775;49.574;11.170;2023-07-31T00:05:05;97494.97;;;15.32
13410;BMP180;6775;49.574;11.170;2023-07-31T00:07:33;97494.63;;;15.27
13410;BMP180;6775;49.574;11.170;2023-07-31T00:10:01;97494.25;;;15.22
13410;BMP180;6775;49.574;11.170;2023-07-31T00:12:30;97493.50;;;15.12
13410;BMP180;6775;49.574;11.170;2023-07-31T00:14:58;97489.88;;;15.05
13410;BMP180;6775;49.574;11.170;2023-07-31T00:17:26;97480.81;;;15.01
13410;BMP180;6775;49.574;11.170;2023-07-31T00:19:55;97476.34;;;14.94
13410;BMP180;6775;49.574;11.170;2023-07-31T00:22:23;97481.97;;;14.89
13410;BMP180;6775;49.574;11.170;2023-07-31T00:24:51;97477.09;;;14.86
13410;BMP180;6775;49.574;11.170;2023-07-31T00:27:19;97483.25;;;14.85
13410;BMP180;6775;49.574;11.170;2023-07-31T00:29:47;97484.34;;;14.83
13410;BMP180;6775;49.574;11.170;2023-07-31T00:32:15;97475.75;;;14.82
13410;BMP180;6775;49.574;11.170;2023-07-31T00:34:43;97479.34;;;14.81
13410;BMP180;6775;49.574;11.170;2023-07-31T00:37:13;97482.88;;;14.80
13410;BMP180;6775;49.574;11.170;2023-07-31T00:39:42;97479.34;;;14.81
13410;BMP180;6775;49.574;11.170;2023-07-31T00:42:10;97481.31;;;14.87
13410;BMP180;6775;49.574;11.170;2023-07-31T00:44:38;97473.63;;;14.95
13410;BMP180;6775;49.574;11.170;2023-07-31T00:47:06;97479.19;;;15.00
13410;BMP180;6775;49.574;11.170;2023-07-31T00:49:34;97479.81;;;15.02
13410;BMP180;6775;49.574;11.170;2023-07-31T00:52:03;97481.47;;;15.03
13410;BMP180;6775;49.574;11.170;2023-07-31T00:54:32;97482.41;;;15.02
13410;BMP180;6775;49.574;11.170;2023-07-31T00:57:03;97475.47;;;15.03
13410;BMP180;6775;49.574;11.170;2023-07-31T00:59:31;97487.13;;;15.07
13410;BMP180;6775;49.574;11.170;2023-07-31T01:01:59;97472.13;;;15.10
13410;BMP180;6775;49.574;11.170;2023-07-31T01:04:28;97479.31;;;15.16
13410;BMP180;6775;49.574;11.170;2023-07-31T01:07:06;97483.53;;;15.17
13410;BMP180;6775;49.574;11.170;2023-07-31T01:09:45;97476.28;;;15.20
13410;BMP180;6775;49.574;11.170;2023-07-31T01:12:17;97484.28;;;15.27
13410;BMP180;6775;49.574;11.170;2023-07-31T01:14:52;97478.13;;;15.28
13410;BMP180;6775;49.574;11.170;2023-07-31T01:17:29;97476.22;;;15.30
13410;BMP180;6775;49.574;11.170;2023-07-31T01:20:02;97464.06;;;15.30
13410;BMP180;6775;49.574;11.170;2023-07-31T01:22:54;97468.94;;;15.33
13410;BMP180;6775;49.574;11.170;2023-07-31T01:25:51;97464.72;;;15.32
13410;BMP180;6775;49.574;11.170;2023-07-31T01:28:28;97463.75;;;15.33
13410;BMP180;6775;49.574;11.170;2023-07-31T01:31:02;97467.19;;;15.34
13410;BMP180;6775;49.574;11.170;2023-07-31T01:33:34;97461.00;;;15.35
13410;BMP180;6775;49.574;11.170;2023-07-31T01:36:03;97459.25;;;15.35
13410;BMP180;6775;49.574;11.170;2023-07-31T01:38:32;97459.75;;;15.39
13410;BMP180;6775;49.574;11.170;2023-07-31T01:41:01;97462.84;;;15.42
13410;BMP180;6775;49.574;11.170;2023-07-31T01:43:29;97463.53;;;15.44
13410;BMP180;6775;49.574;11.170;2023-07-31T01:45:57;97460.63;;;15.47
13410;BMP180;6775;49.574;11.170;2023-07-31T01:48:25;97450.13;;;15.49
13410;BMP180;6775;49.574;11.170;2023-07-31T01:50:53;97453.50;;;15.49
13410;BMP180;6775;49.574;11.170;2023-07-31T01:53:21;97456.09;;;15.49
13410;BMP180;6775;49.574;11.170;2023-07-31T01:55:49;97456.94;;;15.50
13410;BMP180;6775;49.574;11.170;2023-07-31T01:58:19;97449.00;;;15.51
13410;BMP180;6775;49.574;11.170;2023-07-31T02:00:47;97449.50;;;15.55
13410;BMP180;6775;49.574;11.170;2023-07-31T02:03:15;97445.94;;;15.56
13410;BMP180;6775;49.574;11.170;2023-07-31T02:05:46;97444.97;;;15.57
13410;BMP180;6775;49.574;11.170;2023-07-31T02:08:15;97436.91;;;15.60
13410;BMP180;6775;49.574;11.170;2023-07-31T02:10:43;97435.94;;;15.61
13410;BMP180;6775;49.574;11.170;2023-07-31T02:13:11;97441.78;;;15.63
13410;BMP180;6775;49.574;11.170;2023-07-31T02:15:41;97430.44;;;15.63
13410;BMP180;6775;49.574;11.170;2023-07-31T02:18:09;97431.25;;;15.64
13410;BMP180;6775;49.574;11.170;2023-07-31T02:20:37;97426.56;;;15.67
13410;BMP180;6775;49.574;11.170;2023-07-31T02:23:05;97414.94;;;15.71
13410;BMP180;6775;49.574;11.170;2023-07-31T02:25:33;97416.09;;;15.77
13410;BMP180;6775;49.574;11.170;2023-07-31T02:28:01;97405.28;;;15.81
13410;BMP180;6775;49.574;11.170;2023-07-31T02:30:29;97398.34;;;15.90
13410;BMP180;6775;49.574;11.170;2023-07-31T02:32:58;97397.88;;;16.02
13410;BMP180;6775;49.574;11.170;2023-07-31T02:35:26;97405.38;;;16.13
13410;BMP180;6775;49.574;11.170;2023-07-31T02:37:54;97403.50;;;16.23
13410;BMP180;6775;49.574;11.170;2023-07-31T02:40:22;97399.94;;;16.32
13410;BMP180;6775;49.574;11.170;2023-07-31T02:42:50;97392.50;;;16.37
13410;BMP180;6775;49.574;11.170;2023-07-31T02:45:18;97400.28;;;16.45
13410;BMP180;6775;49.574;11.170;2023-07-31T02:47:46;97398.03;;;16.50
13410;BMP180;6775;49.574;11.170;2023-07-31T02:50:16;97398.53;;;16.53
13410;BMP180;6775;49.574;11.170;2023-07-31T02:52:44;97404.84;;;16.59
13410;BMP180;6775;49.574;11.170;2023-07-31T02:55:12;97402.56;;;16.64
13410;BMP180;6775;49.574;11.170;2023-07-31T02:57:40;97401.28;;;16.67
13410;BMP180;6775;49.574;11.170;2023-07-31T03:00:08;97400.78;;;16.72
13410;BMP180;6775;49.574;11.170;2023-07-31T03:02:36;97401.47;;;16.74
13410;BMP180;6775;49.574;11.170;2023-07-31T03:05:05;97401.31;;;16.75
13410;BMP180;6775;49.574;11.170;2023-07-31T03:07:35;97399.19;;;16.79
13410;BMP180;6775;49.574;11.170;2023-07-31T03:10:03;97396.59;;;16.79
13410;BMP180;6775;49.574;11.170;2023-07-31T03:12:31;97398.38;;;16.78
13410;BMP180;6775;49.574;11.170;2023-07-31T03:14:59;97390.75;;;16.77
13410;BMP180;6775;49.574;11.170;2023-07-31T03:17:27;97394.97;;;16.78
13410;BMP180;6775;49.574;11.170;2023-07-31T03:19:55;97388.00;;;16.78
13410;BMP180;6775;49.574;11.170;2023-07-31T03:22:23;97396.75;;;16.77
13410;BMP180;6775;49.574;11.170;2023-07-31T03:24:53;97404.22;;;16.80
13410;BMP180;6775;49.574;11.170;2023-07-31T03:27:21;97400.81;;;16.80
13410;BMP180;6775;49.574;11.170;2023-07-31T03:29:49;97390.44;;;16.80
13410;BMP180;6775;49.574;11.170;2023-07-31T03:32:18;97394.16;;;16.77
13410;BMP180;6775;49.574;11.170;2023-07-31T03:34:46;97389.94;;;16.76
13410;BMP180;6775;49.574;11.170;2023-07-31T03:37:14;97395.78;;;16.78
13410;BMP180;6775;49.574;11.170;2023-07-31T03:39:42;97397.56;;;16.78
13410;BMP180;6775;49.574;11.170;2023-07-31T03:42:12;97393.34;;;16.77
13410;BMP180;6775;49.574;11.170;2023-07-31T03:44:40;97394.81;;;16.71
13410;BMP180;6775;49.574;11.170;2023-07-31T03:47:08;97395.31;;;16.67
13410;BMP180;6775;49.574;11.170;2023-07-31T03:49:36;97394.47;;;16.66
13410;BMP180;6775;49.574;11.170;2023-07-31T03:52:05;97387.69;;;16.66
13410;BMP180;6775;49.574;11.170;2023-07-31T03:54:33;97387.69;;;16.66
13410;BMP180;6775;49.574;11.170;2023-07-31T03:57:02;97397.22;;;16.65
13410;BMP180;6775;49.574;11.170;2023-07-31T03:59:31;97395.47;;;16.66
13410;BMP180;6775;49.574;11.170;2023-07-31T04:01:59;97396.44;;;16.65
13410;BMP180;6775;49.574;11.170;2023-07-31T04:04:27;97393.81;;;16.65
13410;BMP180;6775;49.574;11.170;2023-07-31T04:06:55;97393.03;;;16.64
13410;BMP180;6775;49.574;11.170;2023-07-31T04:09:23;97394.16;;;16.62
13410;BMP180;6775;49.574;11.170;2023-07-31T04:11:52;97394.31;;;16.60
13410;BMP180;6775;49.574;11.170;2023-07-31T04:14:20;97385.72;;;16.60
13410;BMP180;6775;49.574;11.170;2023-07-31T04:16:50;97383.28;;;16.58
13410;BMP180;6775;49.574;11.170;2023-07-31T04:19:19;97388.31;;;16.60
13410;BMP180;6775;49.574;11.170;2023-07-31T04:21:47;97381.50;;;16.59
13410;BMP180;6775;49.574;11.170;2023-07-31T04:24:15;97373.72;;;16.59
13410;BMP180;6775;49.574;11.170;2023-07-31T04:26:49;97380.38;;;16.61
13410;BMP180;6775;49.574;11.170;2023-07-31T04:29:16;97388.81;;;16.63
13410;BMP180;6775;49.574;11.170;2023-07-31T04:31:44;97380.06;;;16.64
13410;BMP180;6775;49.574;11.170;2023-07-31T04:34:14;97392.88;;;16.66
13410;BMP180;6775;49.574;11.170;2023-07-31T04:36:42;97386.03;;;16.65
13410;BMP180;6775;49.574;11.170;2023-07-31T04:39:10;97389.44;;;16.65
13410;BMP180;6775;49.574;11.170;2023-07-31T04:41:38;97388.16;;;16.69
13410;BMP180;6775;49.574;11.170;2023-07-31T04:44:06;97385.22;;;16.72
13410;BMP180;6775;49.574;11.170;2023-07-31T04:46:34;97388.66;;;16.72
13410;BMP180;6775;49.574;11.170;2023-07-31T04:49:02;97378.75;;;16.76
13410;BMP180;6775;49.574;11.170;2023-07-31T04:51:32;97373.22;;;16.79
13410;BMP180;6775;49.574;11.170;2023-07-31T04:54:00;97383.28;;;16.82
13410;BMP180;6775;49.574;11.170;2023-07-31T04:56:28;97365.63;;;16.85
13410;BMP180;6775;49.574;11.170;2023-07-31T04:58:56;97375.69;;;16.88
13410;BMP180;6775;49.574;11.170;2023-07-31T05:01:24;97373.72;;;16.90
13410;BMP180;6775;49.574;11.170;2023-07-31T05:03:52;97377.63;;;16.94
13410;BMP180;6775;49.574;11.170;2023-07-31T05:06:20;97372.09;;;16.97
13410;BMP180;6775;49.574;11.170;2023-07-31T05:08:49;97375.47;;;16.98
13410;BMP180;6775;49.574;11.170;2023-07-31T05:11:17;97375.81;;;16.95
13410;BMP180;6775;49.574;11.170;2023-07-31T05:13:45;97371.28;;;16.97
13410;BMP180;6775;49.574;11.170;2023-07-31T05:16:13;97383.59;;;16.95
13410;BMP180;6775;49.574;11.170;2023-07-31T05:18:41;97380.84;;;16.96
13410;BMP180;6775;49.574;11.170;2023-07-31T05:21:09;97382.16;;;17.00
13410;BMP180;6775;49.574;11.170;2023-07-31T05:23:37;97382.31;;;17.07
13410;BMP180;6775;49.574;11.170;2023-07-31T05:26:07;97385.53;;;17.09
13410;BMP180;6775;49.574;11.170;2023-07-31T05:28:36;97379.22;;;17.11
13410;BMP180;6775;49.574;11.170;2023-07-31T05:31:05;97378.72;;;17.16
13410;BMP180;6775;49.574;11.170;2023-07-31T05:33:34;97379.84;;;17.21
13410;BMP180;6775;49.574;11.170;2023-07-31T05:36:02;97383.75;;;17.25
13410;BMP180;6775;49.574;11.170;2023-07-31T05:38:30;97390.06;;;17.30
13410;BMP180;6775;49.574;11.170;2023-07-31T05:40:58;97393.19;;;17.34
13410;BMP180;6775;49.574;11.170;2023-07-31T05:43:27;97390.25;;;17.37
13410;BMP180;6775;49.574;11.170;2023-07-31T05:45:55;97390.72;;;17.40
13410;BMP180;6775;49.574;11.170;2023-07-31T05:48:23;97387.63;;;17.45
13410;BMP180;6775;49.574;11.170;2023-07-31T05:50:51;97389.25;;;17.46
13410;BMP180;6775;49.574;11.170;2023-07-31T05:53:19;97389.38;;;17.52
13410;BMP180;6775;49.574;11.170;2023-07-31T05:55:47;97376.22;;;17.54
13410;BMP180;6775;49.574;11.170;2023-07-31T05:58:15;97383.84;;;17.55
13410;BMP180;6775;49.574;11.170;2023-07-31T06:00:45;97369.88;;;17.56
13410;BMP180;6775;49.574;11.170;2023-07-31T06:03:13;97365.16;;;17.60
13410;BMP180;6775;49.574;11.170;2023-07-31T06:05:41;97362.22;;;17.63
13410;BMP180;6775;49.574;11.170;2023-07-31T06:08:09;97366.94;;;17.67
13410;BMP180;6775;49.574;11.170;2023-07-31T06:10:37;97367.56;;;17.69
13410;BMP180;6775;49.574;11.170;2023-07-31T06:13:05;97364.16;;;17.68
13410;BMP180;6775;49.574;11.170;2023-07-31T06:15:33;97369.00;;;17.71
13410;BMP180;6775;49.574;11.170;2023-07-31T06:18:03;97367.56;;;17.69
13410;BMP180;6775;49.574;11.170;2023-07-31T06:20:34;97376.03;;;17.63
13410;BMP180;6775;49.574;11.170;2023-07-31T06:23:02;97370.38;;;17.60
13410;BMP180;6775;49.574;11.170;2023-07-31T06:25:31;97365.34;;;17.58
13410;BMP180;6775;49.574;11.170;2023-07-31T06:27:59;97378.00;;;17.61
13410;BMP180;6775;49.574;11.170;2023-07-31T06:30:27;97380.09;;;17.66
13410;BMP180;6775;49.574;11.170;2023-07-31T06:32:55;97385.41;;;17.72
13410;BMP180;6775;49.574;11.170;2023-07-31T06:35:24;97387.50;;;17.76
13410;BMP180;6775;49.574;11.170;2023-07-31T06:37:52;97378.09;;;17.75
13410;BMP180;6775;49.574;11.170;2023-07-31T06:40:20;97380.53;;;17.77
13410;BMP180;6775;49.574;11.170;2023-07-31T06:42:49;97381.97;;;17.79
13410;BMP180;6775;49.574;11.170;2023-07-31T06:45:17;97371.88;;;17.84
13410;BMP180;6775;49.574;11.170;2023-07-31T06:47:45;97370.56;;;17.88
13410;BMP180;6775;49.574;11.170;2023-07-31T06:50:14;97373.63;;;17.92
13410;BMP180;6775;49.574;11.170;2023-07-31T06:52:43;97372.44;;;18.02
13410;BMP180;6775;49.574;11.170;2023-07-31T06:55:21;97384.13;;;18.14
13410;BMP180;6775;49.574;11.170;2023-07-31T06:57:53;97369.28;;;18.22
13410;BMP180;6775;49.574;11.170;2023-07-31T07:00:22;97370.06;;;18.31
13410;BMP180;6775;49.574;11.170;2023-07-31T07:02:51;97371.63;;;18.40
13410;BMP180;6775;49.574;11.170;2023-07-31T07:05:19;97376.91;;;18.46
13410;BMP180;6775;49.574;11.170;2023-07-31T07:07:49;97377.41;;;18.50
13410;BMP180;6775;49.574;11.170;2023-07-31T07:10:18;97379.31;;;18.56
13410;BMP180;6775;49.574;11.170;2023-07-31T07:12:46;97373.41;;;18.62
13410;BMP180;6775;49.574;11.170;2023-07-31T07:15:14;97380.50;;;18.68
13410;BMP180;6775;49.574;11.170;2023-07-31T07:17:42;97376.75;;;18.70
13410;BMP180;6775;49.574;11.170;2023-07-31T07:20:11;97369.41;;;18.73
13410;BMP180;6775;49.574;11.170;2023-07-31T07:22:39;97375.53;;;18.80
13410;BMP180;6775;49.574;11.170;2023-07-31T07:25:11;97370.28;;;18.88
13410;BMP180;6775;49.574;11.170;2023-07-31T07:27:39;97366.59;;;18.97
13410;BMP180;6775;49.574;11.170;2023-07-31T07:30:07;97364.00;;;18.97
13410;BMP180;6775;49.574;11.170;2023-07-31T07:32:35;97367.72;;;19.03
13410;BMP180;6775;49.574;11.170;2023-07-31T07:35:05;97372.41;;;19.07
13410;BMP180;6775;49.574;11.170;2023-07-31T07:37:33;97375.38;;;19.04
13410;BMP180;6775;49.574;11.170;2023-07-31T07:40:02;97381.19;;;19.06
13410;BMP180;6775;49.574;11.170;2023-07-31T07:42:31;97384.44;;;19.08
13410;BMP180;6775;49.574;11.170;2023-07-31T07:44:59;97387.06;;;19.08
13410;BMP180;6775;49.574;11.170;2023-07-31T07:47:27;97373.19;;;19.08
13410;BMP180;6775;49.574;11.170;2023-07-31T07:49:55;97391.25;;;19.09
13410;BMP180;6775;49.574;11.170;2023-07-31T07:52:23;97381.84;;;19.08
13410;BMP180;6775;49.574;11.170;2023-07-31T07:54:51;97373.56;;;19.05
13410;BMP180;6775;49.574;11.170;2023-07-31T07:57:19;97375.97;;;19.06
13410;BMP180;6775;49.574;11.170;2023-07-31T07:59:48;97372.03;;;19.10
13410;BMP180;6775;49.574;11.170;2023-07-31T08:02:16;97366.47;;;19.13
13410;BMP180;6775;49.574;11.170;2023-07-31T08:04:44;97362.53;;;19.17
13410;BMP180;6775;49.574;11.170;2023-07-31T08:07:13;97359.56;;;19.20
13410;BMP180;6775;49.574;11.170;2023-07-31T08:09:41;97363.72;;;19.29
13410;BMP180;6775;49.574;11.170;2023-07-31T08:12:09;97365.25;;;19.38
13410;BMP180;6775;49.574;11.170;2023-07-31T08:14:37;97356.97;;;19.49
13410;BMP180;6775;49.574;11.170;2023-07-31T08:17:06;97357.78;;;19.64
13410;BMP180;6775;49.574;11.170;2023-07-31T08:19:35;97363.16;;;19.76
13410;BMP180;6775;49.574;11.170;2023-07-31T08:22:04;97357.97;;;19.91
13410;BMP180;6775;49.574;11.170;2023-07-31T08:24:32;97352.75;;;20.05
13410;BMP180;6775;49.574;11.170;2023-07-31T08:27:00;97347.81;;;20.31
13410;BMP180;6775;49.574;11.170;2023-07-31T08:29:28;97349.84;;;20.56
13410;BMP180;6775;49.574;11.170;2023-07-31T08:31:56;97349.94;;;20.63
13410;BMP180;6775;49.574;11.170;2023-07-31T08:34:25;97329.56;;;20.73
13410;BMP180;6775;49.574;11.170;2023-07-31T08:36:53;97324.06;;;20.88
13410;BMP180;6775;49.574;11.170;2023-07-31T08:39:21;97326.16;;;20.99
13410;BMP180;6775;49.574;11.170;2023-07-31T08:41:49;97319.59;;;21.10
13410;BMP180;6775;49.574;11.170;2023-07-31T08:44:18;97314.59;;;21.15
13410;BMP180;6775;49.574;11.170;2023-07-31T08:46:48;97313.97;;;21.40
13410;BMP180;6775;49.574;11.170;2023-07-31T08:49:17;97308.69;;;21.67
13410;BMP180;6775;49.574;11.170;2023-07-31T08:51:50;97316.66;;;21.99
13410;BMP180;6775;49.574;11.170;2023-07-31T08:54:20;97309.75;;;22.26
13410;BMP180;6775;49.574;11.170;2023-07-31T08:56:49;97313.59;;;22.36
13410;BMP180;6775;49.574;11.170;2023-07-31T08:59:19;97312.78;;;22.42
13410;BMP180;6775;49.574;11.170;2023-07-31T09:01:53;97314.63;;;22.74
13410;BMP180;6775;49.574;11.170;2023-07-31T09:04:23;97301.13;;;22.83
13410;BMP180;6775;49.574;11.170;2023-07-31T09:07:00;97310.03;;;23.01
13410;BMP180;6775;49.574;11.170;2023-07-31T09:09:28;97312.00;;;23.12
13410;BMP180;6775;49.574;11.170;2023-07-31T09:11:58;97307.19;;;22.96
13410;BMP180;6775;49.574;11.170;2023-07-31T09:14:26;97299.94;;;22.73
13410;BMP180;6775;49.574;11.170;2023-07-31T09:16:56;97302.34;;;22.68
13410;BMP180;6775;49.574;11.170;2023-07-31T09:19:26;97307.97;;;22.90
13410;BMP180;6775;49.574;11.170;2023-07-31T09:21:56;97297.50;;;23.23
13410;BMP180;6775;49.574;11.170;2023-07-31T09:24:28;97292.44;;;23.34
13410;BMP180;6775;49.574;11.170;2023-07-31T09:26:59;97288.97;;;23.40
13410;BMP180;6775;49.574;11.170;2023-07-31T09:29:28;97296.63;;;23.48
13410;BMP180;6775;49.574;11.170;2023-07-31T09:31:57;97292.81;;;23.44
13410;BMP180;6775;49.574;11.170;2023-07-31T09:34:31;97292.06;;;23.24
13410;BMP180;6775;49.574;11.170;2023-07-31T09:37:06;97285.59;;;22.94
13410;BMP180;6775;49.574;11.170;2023-07-31T09:39:46;97280.16;;;23.09
13410;BMP180;6775;49.574;11.170;2023-07-31T09:42:25;97279.31;;;23.34
13410;BMP180;6775;49.574;11.170;2023-07-31T09:44:53;97280.28;;;23.52
13410;BMP180;6775;49.574;11.170;2023-07-31T09:47:25;97281.66;;;23.55
13410;BMP180;6775;49.574;11.170;2023-07-31T09:49:53;97276.03;;;23.45
13410;BMP180;6775;49.574;11.170;2023-07-31T09:52:26;97265.19;;;23.41
13410;BMP180;6775;49.574;11.170;2023-07-31T09:54:55;97265.97;;;23.48
13410;BMP180;6775;49.574;11.170;2023-07-31T09:57:23;97258.69;;;23.50
13410;BMP180;6775;49.574;11.170;2023-07-31T09:59:54;97252.03;;;23.48
13410;BMP180;6775;49.574;11.170;2023-07-31T10:02:23;97256.69;;;23.46
13410;BMP180;6775;49.574;11.170;2023-07-31T10:04:51;97260.41;;;23.06
13410;BMP180;6775;49.574;11.170;2023-07-31T10:07:25;97258.41;;;22.82
13410;BMP180;6775;49.574;11.170;2023-07-31T10:09:55;97252.34;;;22.88
13410;BMP180;6775;49.574;11.170;2023-07-31T10:12:27;97251.16;;;22.97
13410;BMP180;6775;49.574;11.170;2023-07-31T10:14:56;97237.03;;;23.11
13410;BMP180;6775;49.574;11.170;2023-07-31T10:17:26;97235.38;;;23.30
13410;BMP180;6775;49.574;11.170;2023-07-31T10:19:56;97236.56;;;23.27
13410;BMP180;6775;49.574;11.170;2023-07-31T10:22:27;97237.19;;;23.16
13410;BMP180;6775;49.574;11.170;2023-07-31T10:24:59;97232.81;;;22.97
13410;BMP180;6775;49.574;11.170;2023-07-31T10:27:27;97232.00;;;22.84
13410;BMP180;6775;49.574;11.170;2023-07-31T10:29:57;97229.00;;;22.74
13410;BMP180;6775;49.574;11.170;2023-07-31T10:32:27;97229.19;;;22.66
13410;BMP180;6775;49.574;11.170;2023-07-31T10:34:56;97220.13;;;22.69
13410;BMP180;6775;49.574;11.170;2023-07-31T10:37:28;97218.09;;;22.83
13410;BMP180;6775;49.574;11.170;2023-07-31T10:40:00;97211.59;;;23.18
13410;BMP180;6775;49.574;11.170;2023-07-31T10:42:33;97212.84;;;23.66
13410;BMP180;6775;49.574;11.170;2023-07-31T10:45:05;97212.00;;;24.09
13410;BMP180;6775;49.574;11.170;2023-07-31T10:47:38;97203.81;;;24.54
13410;BMP180;6775;49.574;11.170;2023-07-31T10:50:21;97195.78;;;24.91
13410;BMP180;6775;49.574;11.170;2023-07-31T10:52:54;97198.16;;;25.17
13410;BMP180;6775;49.574;11.170;2023-07-31T10:55:28;97180.97;;;25.32
13410;BMP180;6775;49.574;11.170;2023-07-31T10:58:05;97186.53;;;25.06
13410;BMP180;6775;49.574;11.170;2023-07-31T11:00:36;97178.88;;;24.81
13410;BMP180;6775;49.574;11.170;2023-07-31T11:03:06;97178.19;;;24.49
13410;BMP180;6775;49.574;11.170;2023-07-31T11:05:48;97185.69;;;24.15
13410;BMP180;6775;49.574;11.170;2023-07-31T11:08:21;97183.84;;;23.91
13410;BMP180;6775;49.574;11.170;2023-07-31T11:11:05;97180.13;;;23.62
13410;BMP180;6775;49.574;11.170;2023-07-31T11:13:40;97180.00;;;23.50
13410;BMP180;6775;49.574;11.170;2023-07-31T11:16:08;97175.63;;;23.38
13410;BMP180;6775;49.574;11.170;2023-07-31T11:18:40;97178.09;;;23.20
13410;BMP180;6775;49.574;11.170;2023-07-31T11:21:12;97174.16;;;22.98
13410;BMP180;6775;49.574;11.170;2023-07-31T11:23:45;97172.56;;;22.78
13410;BMP180;6775;49.574;11.170;2023-07-31T11:26:14;97174.41;;;22.52
13410;BMP180;6775;49.574;11.170;2023-07-31T11:28:43;97175.03;;;22.41
13410;BMP180;6775;49.574;11.170;2023-07-31T11:31:11;97169.41;;;22.31
13410;BMP180;6775;49.574;11.170;2023-07-31T11:33:39;97171.19;;;22.24
13410;BMP180;6775;49.574;11.170;2023-07-31T11:36:14;97173.78;;;22.18
13410;BMP180;6775;49.574;11.170;2023-07-31T11:38:45;97174.19;;;22.15
13410;BMP180;6775;49.574;11.170;2023-07-31T11:41:15;97177.81;;;22.14
13410;BMP180;6775;49.574;11.170;2023-07-31T11:43:46;97174.19;;;22.15
13410;BMP180;6775;49.574;11.170;2023-07-31T11:46:15;97175.19;;;22.14
13410;BMP180;6775;49.574;11.170;2023-07-31T11:48:43;97182.03;;;22.08
13410;BMP180;6775;49.574;11.170;2023-07-31T11:51:13;97173.38;;;22.01
13410;BMP180;6775;49.574;11.170;2023-07-31T11:53:46;97168.53;;;21.98
13410;BMP180;6775;49.574;11.170;2023-07-31T11:56:20;97168.72;;;22.03
13410;BMP180;6775;49.574;11.170;2023-07-31T11:58:53;97168.56;;;22.11
13410;BMP180;6775;49.574;11.170;2023-07-31T12:01:23;97175.97;;;22.21
13410;BMP180;6775;49.574;11.170;2023-07-31T12:03:52;97162.75;;;22.29
13410;BMP180;6775;49.574;11.170;2023-07-31T12:06:21;97160.50;;;22.32
13410;BMP180;6775;49.574;11.170;2023-07-31T12:08:50;97169.41;;;22.31
13410;BMP180;6775;49.574;11.170;2023-07-31T12:11:18;97168.38;;;22.32
13410;BMP180;6775;49.574;11.170;2023-07-31T12:13:46;97158.50;;;22.34
13410;BMP180;6775;49.574;11.170;2023-07-31T12:16:14;97160.09;;;22.35
13410;BMP180;6775;49.574;11.170;2023-07-31T12:18:43;97154.66;;;22.36
13410;BMP180;6775;49.574;11.170;2023-07-31T12:21:11;97154.25;;;22.46
13410;BMP180;6775;49.574;11.170;2023-07-31T12:23:40;97149.25;;;22.51
13410;BMP180;6775;49.574;11.170;2023-07-31T12:26:12;97139.34;;;22.53
13410;BMP180;6775;49.574;11.170;2023-07-31T12:28:42;97140.53;;;22.63
13410;BMP180;6775;49.574;11.170;2023-07-31T12:31:13;97140.34;;;22.65
13410;BMP180;6775;49.574;11.170;2023-07-31T12:33:42;97130.69;;;22.65
13410;BMP180;6775;49.574;11.170;2023-07-31T12:36:12;97126.81;;;22.68
13410;BMP180;6775;49.574;11.170;2023-07-31T12:38:41;97126.66;;;22.63
13410;BMP180;6775;49.574;11.170;2023-07-31T12:41:11;97131.47;;;22.59
13410;BMP180;6775;49.574;11.170;2023-07-31T12:43:44;97128.06;;;22.59
13410;BMP180;6775;49.574;11.170;2023-07-31T12:46:12;97123.41;;;22.61
13410;BMP180;6775;49.574;11.170;2023-07-31T12:48:41;97128.84;;;22.59
13410;BMP180;6775;49.574;11.170;2023-07-31T12:51:09;97115.59;;;22.54
13410;BMP180;6775;49.574;11.170;2023-07-31T12:53:37;97101.31;;;22.44
13410;BMP180;6775;49.574;11.170;2023-07-31T12:56:05;97096.03;;;22.50
13410;BMP180;6775;49.574;11.170;2023-07-31T12:58:34;97098.41;;;22.65
13410;BMP180;6775;49.574;11.170;2023-07-31T13:01:02;97095.75;;;22.84
13410;BMP180;6775;49.574;11.170;2023-07-31T13:03:31;97090.25;;;23.05
13410;BMP180;6775;49.574;11.170;2023-07-31T13:05:59;97088.13;;;23.26
13410;BMP180;6775;49.574;11.170;2023-07-31T13:08:27;97087.84;;;23.40
13410;BMP180;6775;49.574;11.170;2023-07-31T13:10:55;97080.72;;;23.54
13410;BMP180;6775;49.574;11.170;2023-07-31T13:13:23;97077.34;;;23.78
13410;BMP180;6775;49.574;11.170;2023-07-31T13:15:52;97080.03;;;23.95
13410;BMP180;6775;49.574;11.170;2023-07-31T13:18:21;97076.25;;;24.09
13410;BMP180;6775;49.574;11.170;2023-07-31T13:20:49;97071.41;;;24.13
13410;BMP180;6775;49.574;11.170;2023-07-31T13:23:17;97074.69;;;24.08
13410;BMP180;6775;49.574;11.170;2023-07-31T13:25:45;97075.22;;;23.92
13410;BMP180;6775;49.574;11.170;2023-07-31T13:28:13;97064.81;;;23.80
13410;BMP180;6775;49.574;11.170;2023-07-31T13:30:41;97080.41;;;23.75
13410;BMP180;6775;49.574;11.170;2023-07-31T13:33:10;97072.09;;;23.78
13410;BMP180;6775;49.574;11.170;2023-07-31T13:35:58;97066.06;;;23.77
13410;BMP180;6775;49.574;11.170;2023-07-31T13:38:26;97061.16;;;23.81
13410;BMP180;6775;49.574;11.170;2023-07-31T13:40:54;97050.66;;;23.81
13410;BMP180;6775;49.574;11.170;2023-07-31T13:43:23;97050.09;;;23.79
13410;BMP180;6775;49.574;11.170;2023-07-31T13:45:51;97048.75;;;23.63
13410;BMP180;6775;49.574;11.170;2023-07-31T13:48:20;97046.41;;;23.55
13410;BMP180;6775;49.574;11.170;2023-07-31T13:50:48;97047.72;;;23.40
13410;BMP180;6775;49.574;11.170;2023-07-31T13:53:16;97034.47;;;23.29
13410;BMP180;6775;49.574;11.170;2023-07-31T13:55:44;97027.53;;;23.10
13410;BMP180;6775;49.574;11.170;2023-07-31T13:58:12;97029.13;;;23.11
13410;BMP180;6775;49.574;11.170;2023-07-31T14:00:40;97029.06;;;23.24
13410;BMP180;6775;49.574;11.170;2023-07-31T14:03:09;97019.13;;;23.32
13410;BMP180;6775;49.574;11.170;2023-07-31T14:05:38;97017.44;;;23.44
13410;BMP180;6775;49.574;11.170;2023-07-31T14:08:06;97004.81;;;23.65
13410;BMP180;6775;49.574;11.170;2023-07-31T14:10:34;97003.88;;;23.78
13410;BMP180;6775;49.574;11.170;2023-07-31T14:13:02;96999.69;;;23.94
13410;BMP180;6775;49.574;11.170;2023-07-31T14:15:30;97000.88;;;24.16
13410;BMP180;6775;49.574;11.170;2023-07-31T14:17:59;97002.63;;;24.22
13410;BMP180;6775;49.574;11.170;2023-07-31T14:20:28;96999.44;;;24.20